Time;durP1;ratioP1;P1;durP2;ratioP2;P2;SDS_P1;SDS_P2;PMS_P1;PMS_P2;Temp;Humidity;BMP_temperature;BMP_pressure;BME280_temperature;BME280_humidity;BME280_pressure;Samples;Min_cycle;Max_cycle;Signal;HPM_P1;HPM_P2
2021/10/04 00:01:40;;;;;;;17.50;13.57;;;19.20;99.90;;;;;;5052510;28;20809;-51
2021/10/04 00:04:06;;;;;;;15.43;13.10;;;19.20;99.90;;;;;;5052384;28;20442;-51
2021/10/04 00:06:33;;;;;;;12.73;11.43;;;19.20;99.90;;;;;;5052439;28;20487;-51
2021/10/04 00:08:59;;;;;;;14.17;12.20;;;19.20;99.90;;;;;;5051778;28;20445;-51
2021/10/04 00:11:26;;;;;;;13.17;11.90;;;19.10;99.90;;;;;;5052034;28;20430;-51
2021/10/04 00:13:54;;;;;;;13.00;11.57;;;19.20;99.90;;;;;;5051889;28;20814;-51
2021/10/04 00:16:20;;;;;;;12.83;11.37;;;19.20;99.90;;;;;;5052134;28;20861;-51
2021/10/04 00:18:47;;;;;;;12.27;11.13;;;19.20;99.90;;;;;;5051523;28;20640;-51
2021/10/04 00:21:14;;;;;;;15.50;11.63;;;19.20;99.90;;;;;;5051861;28;20442;-51
2021/10/04 00:23:41;;;;;;;11.63;10.50;;;19.10;99.90;;;;;;5051848;28;20437;-51
2021/10/04 00:26:07;;;;;;;11.90;10.80;;;19.10;99.90;;;;;;5051789;28;20458;-51
2021/10/04 00:28:34;;;;;;;12.10;10.90;;;19.10;99.90;;;;;;5051316;28;20442;-50
2021/10/04 00:31:02;;;;;;;12.43;10.80;;;19.10;99.90;;;;;;5051977;28;20828;-51
2021/10/04 00:33:29;;;;;;;11.53;8.40;;;19.10;99.90;;;;;;5052467;28;20438;-50
2021/10/04 00:35:56;;;;;;;11.17;9.63;;;19.10;99.90;;;;;;5052912;28;20481;-50
2021/10/04 00:38:23;;;;;;;9.13;8.30;;;19.10;99.90;;;;;;5051119;28;20556;-51
2021/10/04 00:40:50;;;;;;;10.70;9.67;;;19.10;99.90;;;;;;5051557;28;20442;-50
2021/10/04 00:43:17;;;;;;;11.13;9.97;;;19.10;99.90;;;;;;5033596;28;20454;-51
2021/10/04 00:45:43;;;;;;;9.27;8.10;;;19.10;99.90;;;;;;5051467;28;20472;-50
2021/10/04 00:48:11;;;;;;;10.57;9.50;;;19.10;99.90;;;;;;5051085;28;20798;-51
2021/10/04 00:50:38;;;;;;;9.90;8.90;;;19.10;99.90;;;;;;5052769;28;20438;-51
2021/10/04 00:53:05;;;;;;;11.87;9.30;;;19.00;99.90;;;;;;5055655;28;20442;-50
2021/10/04 00:55:31;;;;;;;12.10;9.40;;;19.10;99.90;;;;;;5055546;28;20962;-50
2021/10/04 00:58:00;;;;;;;12.03;9.47;;;19.20;99.90;;;;;;5055079;28;20890;-50
2021/10/04 01:00:28;;;;;;;9.43;8.43;;;19.10;99.90;;;;;;5055760;28;20441;-50
2021/10/04 01:02:55;;;;;;;9.13;8.30;;;19.10;99.90;;;;;;5055648;28;20469;-51
2021/10/04 01:05:23;;;;;;;9.70;8.43;;;19.10;99.90;;;;;;5055509;28;20533;-51
2021/10/04 01:07:50;;;;;;;9.57;8.47;;;19.10;99.90;;;;;;5055241;28;20456;-51
2021/10/04 01:10:17;;;;;;;9.20;8.30;;;19.10;99.90;;;;;;5055562;28;20906;-51
2021/10/04 01:12:46;;;;;;;10.57;8.40;;;19.10;99.90;;;;;;5056176;28;20821;-50
2021/10/04 01:15:14;;;;;;;9.60;8.20;;;19.10;99.90;;;;;;5055942;28;20450;-50
2021/10/04 01:17:41;;;;;;;11.20;9.37;;;19.00;99.90;;;;;;5055359;28;20482;-50
2021/10/04 01:20:14;;;;;;;10.60;9.60;;;19.00;99.90;;;;;;5055840;28;20457;-50
2021/10/04 01:22:41;;;;;;;11.30;10.20;;;19.00;99.90;;;;;;5055359;28;20449;-50
2021/10/04 01:25:09;;;;;;;13.43;9.40;;;19.00;99.90;;;;;;5055387;28;20458;-51
2021/10/04 01:27:36;;;;;;;12.60;9.60;;;18.90;99.90;;;;;;5055125;28;20440;-50
2021/10/04 01:30:03;;;;;;;10.50;9.40;;;18.90;99.90;;;;;;5055169;28;20806;-50
2021/10/04 01:32:30;;;;;;;10.17;9.20;;;18.90;99.90;;;;;;5055088;28;20509;-51
2021/10/04 01:34:57;;;;;;;9.60;8.60;;;18.90;99.90;;;;;;5055146;28;20473;-51
2021/10/04 01:37:26;;;;;;;13.80;8.07;;;18.90;99.90;;;;;;5054931;28;20473;-51
2021/10/04 01:39:53;;;;;;;8.20;7.50;;;18.90;99.90;;;;;;5054717;28;20445;-51
2021/10/04 01:42:20;;;;;;;9.77;7.90;;;18.80;99.90;;;;;;5055218;28;20446;-51
2021/10/04 01:44:46;;;;;;;7.63;6.70;;;18.80;99.90;;;;;;5055417;28;20468;-51
2021/10/04 01:47:13;;;;;;;9.63;7.40;;;19.10;99.90;;;;;;5054937;28;20437;-51
2021/10/04 01:49:40;;;;;;;9.33;7.20;;;18.80;99.90;;;;;;5054486;28;20930;-50
2021/10/04 01:52:08;;;;;;;10.27;6.77;;;18.80;99.90;;;;;;5056897;28;20470;-50
2021/10/04 01:54:35;;;;;;;9.53;6.40;;;18.70;99.90;;;;;;5054896;28;20472;-51
2021/10/04 01:57:02;;;;;;;8.27;6.67;;;18.70;99.90;;;;;;5054726;28;20477;-51
2021/10/04 01:59:29;;;;;;;8.20;7.40;;;18.70;99.90;;;;;;5054243;28;20433;-51
2021/10/04 02:01:55;;;;;;;8.83;5.47;;;18.70;99.90;;;;;;5053433;28;20442;-51
2021/10/04 02:04:22;;;;;;;9.37;6.00;;;18.70;99.90;;;;;;5054377;28;20442;-50
2021/10/04 02:06:51;;;;;;;6.43;5.03;;;18.70;99.90;;;;;;5054439;28;20438;-50
2021/10/04 02:09:18;;;;;;;5.97;5.23;;;18.60;99.90;;;;;;5053868;28;20433;-50
2021/10/04 02:11:46;;;;;;;6.10;4.73;;;18.60;99.90;;;;;;5054396;28;20495;-50
2021/10/04 02:14:13;;;;;;;5.83;5.23;;;18.60;99.90;;;;;;5054265;28;20906;-51
2021/10/04 02:16:40;;;;;;;5.43;4.80;;;18.50;99.90;;;;;;5054024;28;20956;-51
2021/10/04 02:19:08;;;;;;;4.70;4.17;;;18.50;99.90;;;;;;5053538;28;20511;-51
2021/10/04 02:21:35;;;;;;;5.20;4.53;;;18.50;99.90;;;;;;5053992;28;20450;-51
2021/10/04 02:24:02;;;;;;;6.83;4.97;;;18.40;99.90;;;;;;5054343;28;20441;-51
2021/10/04 02:26:29;;;;;;;5.47;4.33;;;18.40;99.90;;;;;;5053984;28;20459;-51
2021/10/04 02:28:57;;;;;;;3.87;3.47;;;18.40;99.90;;;;;;5053504;28;21122;-51
2021/10/04 02:31:23;;;;;;;5.03;4.53;;;18.40;99.90;;;;;;5053677;28;20442;-51
2021/10/04 02:33:50;;;;;;;6.20;4.40;;;18.40;99.90;;;;;;5054001;28;20789;-51
2021/10/04 02:36:21;;;;;;;5.03;3.77;;;18.30;99.90;;;;;;5091322;22;20553;-50
2021/10/04 02:38:48;;;;;;;3.67;3.27;;;18.30;99.90;;;;;;5071887;28;20490;-49
2021/10/04 02:41:14;;;;;;;5.93;2.80;;;18.20;99.90;;;;;;5072361;28;20452;-50
2021/10/04 02:43:41;;;;;;;4.37;3.30;;;18.20;99.90;;;;;;5071990;28;20498;-50
2021/10/04 02:46:09;;;;;;;2.50;2.27;;;18.20;99.90;;;;;;5071997;28;20453;-51
2021/10/04 02:48:36;;;;;;;2.93;2.47;;;18.20;99.90;;;;;;5071934;28;20444;-51
2021/10/04 02:51:02;;;;;;;4.10;2.53;;;18.60;99.90;;;;;;5072251;28;20815;-49
2021/10/04 02:53:29;;;;;;;4.37;2.60;;;18.10;99.90;;;;;;5072116;28;20798;-51
2021/10/04 02:55:56;;;;;;;2.27;1.83;;;18.10;99.90;;;;;;5072060;28;20451;-51
2021/10/04 02:58:22;;;;;;;2.30;1.53;;;18.10;99.90;;;;;;5071599;28;20851;-50
2021/10/04 03:00:49;;;;;;;2.50;1.40;;;18.00;99.90;;;;;;5072328;28;20432;-49
2021/10/04 03:03:17;;;;;;;2.50;1.80;;;18.00;99.90;;;;;;5071985;28;20443;-50
2021/10/04 03:05:43;;;;;;;2.17;1.83;;;18.20;99.90;;;;;;5071492;28;20809;-50
2021/10/04 03:08:10;;;;;;;2.17;1.37;;;17.90;99.90;;;;;;5071418;28;20782;-51
2021/10/04 03:10:37;;;;;;;1.80;1.40;;;17.90;99.90;;;;;;5071699;28;20433;-50
2021/10/04 03:13:04;;;;;;;3.60;1.60;;;18.00;99.90;;;;;;5071408;28;20445;-50
2021/10/04 03:15:31;;;;;;;2.70;1.40;;;17.80;99.90;;;;;;5071043;28;20948;-50
2021/10/04 03:17:58;;;;;;;3.60;1.60;;;17.80;99.90;;;;;;5071326;28;20586;-50
2021/10/04 03:20:26;;;;;;;3.07;1.50;;;17.80;99.90;;;;;;5071596;28;20527;-50
2021/10/04 03:22:54;;;;;;;3.60;1.47;;;18.00;99.90;;;;;;5071512;28;20443;-51
2021/10/04 03:25:21;;;;;;;2.47;1.50;;;18.10;99.90;;;;;;5071205;28;20547;-51
2021/10/04 03:27:48;;;;;;;7.70;1.43;;;17.70;99.90;;;;;;5070999;28;20809;-51
2021/10/04 03:30:15;;;;;;;1.67;1.20;;;17.70;99.90;;;;;;5071340;28;20431;-50
2021/10/04 03:32:43;;;;;;;1.83;1.43;;;17.70;99.90;;;;;;5071278;28;20443;-50
2021/10/04 03:35:10;;;;;;;2.00;1.67;;;17.70;99.90;;;;;;5070986;28;20988;-50
2021/10/04 03:37:38;;;;;;;2.87;1.50;;;17.70;99.90;;;;;;5070899;28;20970;-51
2021/10/04 03:40:06;;;;;;;4.43;1.20;;;17.60;99.90;;;;;;5071107;28;20946;-50
2021/10/04 03:42:33;;;;;;;1.50;1.07;;;17.60;99.90;;;;;;5071190;28;20438;-51
2021/10/04 03:45:00;;;;;;;2.10;1.70;;;17.50;99.90;;;;;;5071187;28;20452;-50
2021/10/04 03:47:27;;;;;;;2.17;1.47;;;17.60;99.90;;;;;;5070929;28;20443;-50
2021/10/04 03:49:53;;;;;;;2.33;1.07;;;17.50;99.90;;;;;;5070472;28;20815;-49
2021/10/04 03:52:20;;;;;;;1.67;1.07;;;17.60;99.90;;;;;;5070443;28;20514;-50
2021/10/04 03:54:48;;;;;;;4.53;1.47;;;17.50;99.90;;;;;;5070593;28;20494;-51
2021/10/04 03:57:15;;;;;;;2.83;1.17;;;17.40;99.90;;;;;;5070851;28;20523;-50
2021/10/04 03:59:42;;;;;;;2.67;1.57;;;17.40;99.90;;;;;;5070503;28;20465;-50
2021/10/04 04:02:12;;;;;;;1.70;1.17;;;17.40;99.90;;;;;;5070836;28;20986;-50
2021/10/04 04:04:38;;;;;;;1.50;1.30;;;17.40;99.90;;;;;;5070614;28;20443;-50
2021/10/04 04:07:06;;;;;;;2.40;1.07;;;17.30;99.90;;;;;;5071220;28;20443;-50
2021/10/04 04:09:32;;;;;;;2.30;1.10;;;17.30;99.90;;;;;;5070018;28;20442;-50
2021/10/04 04:12:00;;;;;;;2.50;1.10;;;17.20;99.90;;;;;;5070463;28;20926;-50
2021/10/04 04:14:27;;;;;;;3.83;1.40;;;17.20;99.90;;;;;;5070177;28;20424;-51
2021/10/04 04:16:54;;;;;;;4.43;1.67;;;17.00;99.90;;;;;;5070634;28;20479;-51
2021/10/04 04:19:20;;;;;;;1.83;1.20;;;17.10;99.90;;;;;;5069929;28;20498;-50
2021/10/04 04:21:47;;;;;;;4.40;1.10;;;17.10;99.90;;;;;;5070103;28;20441;-51
2021/10/04 04:24:16;;;;;;;2.57;0.90;;;17.10;99.90;;;;;;5070248;28;20434;-51
2021/10/04 04:26:43;;;;;;;1.83;1.20;;;17.10;99.90;;;;;;5069642;28;20463;-51
2021/10/04 04:29:11;;;;;;;3.23;1.10;;;17.00;99.90;;;;;;5069944;28;20430;-51
2021/10/04 04:31:38;;;;;;;1.20;0.90;;;17.00;99.90;;;;;;5070360;28;20521;-51
2021/10/04 04:34:04;;;;;;;1.73;1.50;;;17.00;99.90;;;;;;5070213;28;20426;-51
2021/10/04 04:36:31;;;;;;;3.00;1.70;;;17.00;99.90;;;;;;5069596;28;20980;-50
2021/10/04 04:38:57;;;;;;;1.93;1.33;;;16.90;99.90;;;;;;5069683;28;20484;-50
2021/10/04 04:41:24;;;;;;;2.20;1.10;;;17.00;99.90;;;;;;5069994;28;20556;-50
2021/10/04 04:43:51;;;;;;;3.00;1.30;;;17.00;99.90;;;;;;5069460;28;20471;-50
2021/10/04 04:46:19;;;;;;;2.90;1.00;;;16.80;99.90;;;;;;5069611;28;20529;-51
2021/10/04 04:48:45;;;;;;;2.60;1.50;;;17.10;99.90;;;;;;5069666;28;20481;-51
2021/10/04 04:51:12;;;;;;;1.60;1.37;;;17.00;99.90;;;;;;5070022;28;20475;-50
2021/10/04 04:53:38;;;;;;;2.73;1.13;;;17.00;99.90;;;;;;5070001;28;20438;-51
2021/10/04 04:56:06;;;;;;;2.13;1.20;;;17.00;99.90;;;;;;5069855;28;20814;-50
2021/10/04 04:58:33;;;;;;;2.90;1.43;;;17.00;99.90;;;;;;5051247;28;20657;-51
2021/10/04 05:00:59;;;;;;;4.60;1.23;;;16.90;99.90;;;;;;5069825;28;20824;-50
2021/10/04 05:03:27;;;;;;;2.77;1.80;;;16.90;99.90;;;;;;5069495;28;20440;-51
2021/10/04 05:05:54;;;;;;;4.27;1.13;;;16.90;99.90;;;;;;5069792;28;20458;-49
2021/10/04 05:08:20;;;;;;;34.97;28.20;;;17.10;99.90;;;;;;5069108;28;20404;-50
2021/10/04 05:10:47;;;;;;;1.83;1.47;;;16.90;99.90;;;;;;5069540;28;20433;-50
2021/10/04 05:13:14;;;;;;;3.50;1.43;;;16.90;99.90;;;;;;5069615;28;20554;-50
2021/10/04 05:15:41;;;;;;;1.97;0.80;;;16.90;99.90;;;;;;5069597;28;20450;-51
2021/10/04 05:18:08;;;;;;;2.17;1.10;;;16.90;99.90;;;;;;5068890;28;20470;-50
2021/10/04 05:20:35;;;;;;;1.63;0.80;;;16.80;99.90;;;;;;5069677;28;20456;-51
2021/10/04 05:23:02;;;;;;;4.37;1.20;;;16.80;99.90;;;;;;5068817;28;20632;-51
2021/10/04 05:25:29;;;;;;;2.40;1.30;;;16.60;99.90;;;;;;5069038;28;20941;-51
2021/10/04 05:27:56;;;;;;;2.03;1.20;;;16.80;99.90;;;;;;5068817;28;20431;-51
2021/10/04 05:30:22;;;;;;;2.40;1.40;;;17.20;99.90;;;;;;5069237;28;20481;-50
2021/10/04 05:32:49;;;;;;;1.30;0.90;;;16.70;99.90;;;;;;5068978;28;20533;-51
2021/10/04 05:35:16;;;;;;;2.43;1.10;;;16.70;99.90;;;;;;5068529;28;20524;-50
2021/10/04 05:37:45;;;;;;;3.70;1.60;;;16.70;99.90;;;;;;5070896;28;20447;-50
2021/10/04 05:40:14;;;;;;;2.30;1.60;;;16.10;99.90;;;;;;5072545;28;20512;-50
2021/10/04 05:42:41;;;;;;;2.80;1.23;;;16.70;99.90;;;;;;5072665;28;20449;-51
2021/10/04 05:45:10;;;;;;;2.30;1.20;;;16.70;99.90;;;;;;5072714;28;20451;-51
2021/10/04 05:47:37;;;;;;;3.20;1.20;;;16.70;99.90;;;;;;5071929;28;20627;-52
2021/10/04 05:50:05;;;;;;;1.70;1.30;;;16.70;99.90;;;;;;5071601;28;20644;-53
2021/10/04 05:52:32;;;;;;;2.90;1.40;;;16.70;99.90;;;;;;5053101;28;20799;-52
2021/10/04 05:55:00;;;;;;;4.97;1.93;;;16.60;99.90;;;;;;5072135;28;20450;-50
2021/10/04 05:57:26;;;;;;;4.93;4.07;;;16.60;99.90;;;;;;5072531;28;20438;-51
2021/10/04 05:59:53;;;;;;;4.50;2.30;;;16.40;99.90;;;;;;5071944;28;20926;-51
2021/10/04 06:02:19;;;;;;;2.57;2.23;;;16.60;99.90;;;;;;5072739;28;20438;-51
2021/10/04 06:04:46;;;;;;;2.87;1.80;;;16.60;99.90;;;;;;5072185;28;20540;-50
2021/10/04 06:07:13;;;;;;;3.53;2.60;;;16.60;99.90;;;;;;5071872;28;20437;-50
2021/10/04 06:09:39;;;;;;;2.80;1.80;;;16.60;99.90;;;;;;5071787;28;20439;-50
2021/10/04 06:12:07;;;;;;;2.83;2.17;;;16.60;99.90;;;;;;5072534;28;20434;-52
2021/10/04 06:14:34;;;;;;;5.17;3.53;;;16.60;99.90;;;;;;5072198;28;20507;-51
2021/10/04 06:17:01;;;;;;;6.73;4.50;;;16.60;99.90;;;;;;5071719;28;20426;-50
2021/10/04 06:19:27;;;;;;;3.57;2.70;;;16.60;99.90;;;;;;5072475;28;20505;-50
2021/10/04 06:21:54;;;;;;;2.47;2.10;;;16.70;99.90;;;;;;5072182;28;20435;-50
2021/10/04 06:24:21;;;;;;;5.83;2.07;;;16.60;99.90;;;;;;5072031;28;20917;-50
2021/10/04 06:26:48;;;;;;;2.57;1.50;;;16.30;99.90;;;;;;5071633;28;20462;-51
2021/10/04 06:29:16;;;;;;;2.80;1.47;;;16.60;99.90;;;;;;5071329;28;20434;-51
2021/10/04 06:31:43;;;;;;;8.00;1.80;;;16.60;99.90;;;;;;5071272;28;20462;-51
2021/10/04 06:34:09;;;;;;;3.20;2.03;;;16.60;99.90;;;;;;5071815;28;20928;-51
2021/10/04 06:36:36;;;;;;;4.57;2.00;;;16.60;99.90;;;;;;5071750;28;20548;-51
2021/10/04 06:39:03;;;;;;;3.17;1.80;;;16.70;99.90;;;;;;5053382;28;20477;-51
2021/10/04 06:41:30;;;;;;;6.77;2.33;;;16.70;99.90;;;;;;5071061;28;20445;-51
2021/10/04 06:43:56;;;;;;;3.73;1.50;;;16.70;99.90;;;;;;5071348;28;20454;-52
2021/10/04 06:46:24;;;;;;;5.07;2.07;;;16.40;99.90;;;;;;5071197;28;20442;-52
2021/10/04 06:48:51;;;;;;;4.70;2.80;;;16.70;99.90;;;;;;5070481;28;20906;-51
2021/10/04 06:51:17;;;;;;;5.47;2.03;;;16.70;99.90;;;;;;5071431;28;20487;-51
2021/10/04 06:53:44;;;;;;;3.43;1.83;;;16.80;99.90;;;;;;5070986;28;20435;-51
2021/10/04 06:56:11;;;;;;;4.20;1.70;;;16.70;99.90;;;;;;5071092;28;20863;-51
2021/10/04 06:58:37;;;;;;;2.80;1.60;;;16.70;99.90;;;;;;5070950;28;20470;-51
2021/10/04 07:01:04;;;;;;;3.00;1.70;;;16.70;99.90;;;;;;5070659;28;20430;-50
2021/10/04 07:03:38;;;;;;;2.40;1.53;;;16.80;99.90;;;;;;5070615;28;20797;-51
2021/10/04 07:06:06;;;;;;;4.53;2.00;;;16.80;99.90;;;;;;5053116;28;20480;-51
2021/10/04 07:08:33;;;;;;;1.63;1.20;;;16.70;99.90;;;;;;5069625;28;20447;-50
2021/10/04 07:11:00;;;;;;;2.23;1.53;;;16.80;99.90;;;;;;5071550;28;20484;-51
2021/10/04 07:13:26;;;;;;;3.80;1.60;;;16.80;99.90;;;;;;5070704;28;20440;-51
2021/10/04 07:15:53;;;;;;;4.47;1.80;;;16.80;99.90;;;;;;5070925;28;20504;-51
2021/10/04 07:18:20;;;;;;;3.57;2.20;;;16.80;99.90;;;;;;5070365;28;20490;-51
2021/10/04 07:20:49;;;;;;;2.97;1.60;;;16.80;99.90;;;;;;5070750;28;20495;-50
2021/10/04 07:23:16;;;;;;;2.67;1.50;;;17.00;99.90;;;;;;5070824;28;20486;-50
2021/10/04 07:25:43;;;;;;;6.93;1.80;;;17.40;99.90;;;;;;5070793;28;20453;-50
2021/10/04 07:28:10;;;;;;;5.23;1.30;;;16.80;99.90;;;;;;5070406;28;20446;-51
2021/10/04 07:30:36;;;;;;;3.47;1.63;;;16.80;99.90;;;;;;5070511;28;20430;-52
2021/10/04 07:33:04;;;;;;;3.63;1.30;;;16.70;99.90;;;;;;5070795;28;20435;-51
2021/10/04 07:35:31;;;;;;;3.50;1.60;;;16.80;99.90;;;;;;5070566;28;20464;-51
2021/10/04 07:37:59;;;;;;;5.70;2.17;;;17.00;99.90;;;;;;5070238;28;20442;-49
2021/10/04 07:40:26;;;;;;;2.00;1.43;;;16.80;99.90;;;;;;5070551;28;20484;-51
2021/10/04 07:42:53;;;;;;;7.13;1.80;;;16.80;99.90;;;;;;5070309;28;20485;-50
2021/10/04 07:45:20;;;;;;;5.37;2.00;;;16.80;99.90;;;;;;5070144;28;20965;-50
2021/10/04 07:47:47;;;;;;;2.60;1.60;;;16.80;99.90;;;;;;5070162;28;20521;-50
2021/10/04 07:50:15;;;;;;;6.10;1.40;;;16.80;99.90;;;;;;5070258;28;20450;-50
2021/10/04 07:52:42;;;;;;;3.30;1.57;;;16.80;99.90;;;;;;5070488;28;20480;-51
2021/10/04 07:55:11;;;;;;;3.57;1.77;;;16.80;99.90;;;;;;5070235;28;20456;-51
2021/10/04 07:57:38;;;;;;;4.50;1.73;;;16.80;99.90;;;;;;5051562;28;20442;-49
2021/10/04 08:00:06;;;;;;;2.27;1.20;;;17.10;99.90;;;;;;5069254;28;20474;-51
2021/10/04 08:02:38;;;;;;;3.57;1.77;;;16.80;99.90;;;;;;5069821;28;20422;-51
2021/10/04 08:05:06;;;;;;;2.20;1.50;;;16.90;99.90;;;;;;5070429;28;20480;-51
2021/10/04 08:07:33;;;;;;;6.73;2.70;;;16.90;99.90;;;;;;5070209;28;20442;-50
2021/10/04 08:09:59;;;;;;;2.77;1.40;;;17.00;99.90;;;;;;5070221;28;21163;-51
2021/10/04 08:12:27;;;;;;;2.57;1.10;;;17.00;99.90;;;;;;5070049;28;20430;-51
2021/10/04 08:14:54;;;;;;;2.50;1.40;;;17.10;99.90;;;;;;5070034;28;20964;-51
2021/10/04 08:17:21;;;;;;;2.60;1.17;;;17.20;99.90;;;;;;5069837;28;20450;-51
2021/10/04 08:19:48;;;;;;;3.47;2.20;;;17.30;99.90;;;;;;5069675;28;20489;-50
2021/10/04 08:22:15;;;;;;;4.47;1.80;;;17.20;99.90;;;;;;5069822;28;20434;-51
2021/10/04 08:24:42;;;;;;;2.37;1.57;;;17.10;99.90;;;;;;5070046;28;20439;-51
2021/10/04 08:27:08;;;;;;;5.07;2.10;;;17.40;99.90;;;;;;5069758;28;20445;-51
2021/10/04 08:29:36;;;;;;;5.17;4.00;;;17.50;99.90;;;;;;5069795;28;20467;-52
2021/10/04 08:32:04;;;;;;;4.20;1.80;;;17.30;99.90;;;;;;5070004;28;20445;-51
2021/10/04 08:34:31;;;;;;;5.10;1.97;;;17.50;99.90;;;;;;5070030;28;20852;-50
2021/10/04 08:36:58;;;;;;;4.17;2.20;;;17.40;99.90;;;;;;5070085;28;20441;-52
2021/10/04 08:39:24;;;;;;;3.20;1.73;;;17.40;99.90;;;;;;5069485;28;20491;-51
2021/10/04 08:41:52;;;;;;;2.80;1.30;;;17.60;99.90;;;;;;5069417;28;20981;-50
2021/10/04 08:44:20;;;;;;;4.73;1.47;;;17.40;99.90;;;;;;5069514;28;20548;-50
2021/10/04 08:46:48;;;;;;;3.53;1.43;;;17.40;99.90;;;;;;5069292;28;20474;-50
2021/10/04 08:49:17;;;;;;;8.60;3.90;;;17.40;99.90;;;;;;5069722;28;20439;-51
2021/10/04 08:51:45;;;;;;;4.27;2.03;;;17.50;99.90;;;;;;5069864;28;20438;-51
2021/10/04 08:54:13;;;;;;;5.67;2.20;;;17.40;99.90;;;;;;5069632;28;20501;-51
2021/10/04 08:56:40;;;;;;;11.30;5.47;;;17.50;99.90;;;;;;5069461;28;20460;-51
2021/10/04 08:59:07;;;;;;;18.30;8.10;;;17.50;99.90;;;;;;5068827;28;20470;-51
2021/10/04 09:01:33;;;;;;;11.47;5.13;;;17.40;99.90;;;;;;5069247;28;20440;-51
2021/10/04 09:04:04;;;;;;;8.10;3.80;;;17.40;99.90;;;;;;5069643;28;20526;-51
2021/10/04 09:06:32;;;;;;;8.10;4.03;;;17.40;99.90;;;;;;5069479;28;20966;-50
2021/10/04 09:09:01;;;;;;;10.33;3.47;;;17.30;99.90;;;;;;5069284;28;20836;-51
2021/10/04 09:11:30;;;;;;;8.10;2.90;;;17.40;99.90;;;;;;5070095;28;20443;-49
2021/10/04 09:14:02;;;;;;;5.00;1.60;;;17.30;99.90;;;;;;5073242;28;20777;-51
2021/10/04 09:16:53;;;;;;;3.60;1.73;;;17.30;99.90;;;;;;5073580;28;20448;-51
2021/10/04 09:19:23;;;;;;;4.43;1.70;;;17.30;99.90;;;;;;5072703;28;20472;-51
2021/10/04 09:22:12;;;;;;;2.77;1.27;;;17.30;99.90;;;;;;5072693;28;20434;-51
2021/10/04 09:24:40;;;;;;;1.70;1.40;;;17.30;99.90;;;;;;5072808;28;20522;-53
2021/10/04 09:27:31;;;;;;;6.17;1.93;;;17.20;99.90;;;;;;5073171;28;20741;-51
2021/10/04 09:29:59;;;;;;;4.13;2.10;;;17.80;99.90;;;;;;5073455;28;20446;-51
2021/10/04 09:32:29;;;;;;;2.40;1.43;;;17.20;99.90;;;;;;5072789;28;20445;-51
2021/10/04 09:35:26;;;;;;;4.53;1.90;;;17.20;99.90;;;;;;5072764;28;20479;-50
2021/10/04 09:38:13;;;;;;;2.07;1.30;;;17.30;99.90;;;;;;5072212;28;20994;-52
2021/10/04 09:40:41;;;;;;;3.43;2.03;;;17.20;99.90;;;;;;5072221;28;20475;-49
2021/10/04 09:43:10;;;;;;;5.60;2.10;;;17.10;99.90;;;;;;5072379;28;20860;-50
2021/10/04 09:45:37;;;;;;;5.63;2.30;;;17.30;99.90;;;;;;5072944;28;20463;-51
2021/10/04 09:48:11;;;;;;;3.83;2.37;;;17.40;99.90;;;;;;5072131;28;20449;-50
2021/10/04 09:50:41;;;;;;;3.20;1.73;;;17.40;99.90;;;;;;5072489;28;20434;-49
2021/10/04 09:53:12;;;;;;;5.30;2.10;;;17.40;99.90;;;;;;5072397;28;20440;-50
2021/10/04 09:55:40;;;;;;;3.47;1.63;;;17.40;99.90;;;;;;5072711;28;20454;-50
2021/10/04 09:58:14;;;;;;;3.97;1.80;;;17.40;99.90;;;;;;5054207;28;20446;-50
2021/10/04 10:00:44;;;;;;;3.27;2.10;;;17.80;99.90;;;;;;5072453;28;20482;-51
2021/10/04 10:03:18;;;;;;;6.17;1.97;;;17.40;99.90;;;;;;5072335;28;20918;-51
2021/10/04 10:05:50;;;;;;;5.03;2.03;;;17.40;99.90;;;;;;5071957;28;20486;-51
2021/10/04 10:08:17;;;;;;;8.10;2.20;;;17.40;99.90;;;;;;5071639;28;20500;-51
2021/10/04 10:10:46;;;;;;;3.23;2.27;;;17.00;99.90;;;;;;5071978;28;20463;-51
2021/10/04 10:13:15;;;;;;;3.80;2.93;;;17.50;99.90;;;;;;5072117;28;20540;-50
2021/10/04 10:15:47;;;;;;;4.37;1.37;;;17.60;99.90;;;;;;5072111;28;20486;-51
2021/10/04 10:18:21;;;;;;;5.23;1.60;;;17.60;99.90;;;;;;5072371;28;20444;-50
2021/10/04 10:20:56;;;;;;;3.40;2.07;;;17.70;99.90;;;;;;5071528;28;20479;-51
2021/10/04 10:23:41;;;;;;;6.03;2.13;;;17.70;99.90;;;;;;5070504;28;20453;-50
2021/10/04 10:26:36;;;;;;;5.27;2.13;;;17.80;99.90;;;;;;5071921;28;20455;-50
2021/10/04 10:29:23;;;;;;;4.67;1.90;;;17.80;99.90;;;;;;5053535;28;20448;-51
2021/10/04 10:32:18;;;;;;;3.13;1.87;;;17.90;99.90;;;;;;5071598;28;20473;-51
2021/10/04 10:34:49;;;;;;;3.77;1.47;;;18.00;99.90;;;;;;5071665;28;20533;-50
2021/10/04 10:37:21;;;;;;;6.47;1.87;;;18.10;99.90;;;;;;5072063;28;20448;-51
2021/10/04 10:39:51;;;;;;;4.77;1.67;;;18.10;99.70;;;;;;5071256;28;20553;-51
2021/10/04 10:42:19;;;;;;;4.00;1.53;;;18.10;99.70;;;;;;5071562;28;20435;-51
2021/10/04 10:45:13;;;;;;;5.77;2.20;;;18.60;99.80;;;;;;5072287;28;20441;-51
2021/10/04 10:47:54;;;;;;;7.30;1.73;;;18.20;98.90;;;;;;5071192;28;20448;-51
2021/10/04 10:50:32;;;;;;;7.63;1.80;;;18.20;99.10;;;;;;5071829;28;20432;-50
2021/10/04 10:53:10;;;;;;;5.63;1.50;;;18.20;99.20;;;;;;5070870;28;20454;-50
2021/10/04 10:55:39;;;;;;;4.83;1.93;;;18.10;99.10;;;;;;5071825;28;20972;-50
2021/10/04 10:58:09;;;;;;;5.27;1.77;;;18.10;99.10;;;;;;5070898;28;20912;-50
2021/10/04 11:00:38;;;;;;;4.50;1.97;;;17.80;98.80;;;;;;5071758;28;20491;-49
2021/10/04 11:03:07;;;;;;;5.67;1.97;;;18.00;98.90;;;;;;5071261;28;20541;-50
2021/10/04 11:05:55;;;;;;;6.17;1.80;;;17.90;99.00;;;;;;5071538;28;20517;-50
2021/10/04 11:08:26;;;;;;;4.23;1.90;;;17.90;98.80;;;;;;5070839;28;20438;-49
2021/10/04 11:11:11;;;;;;;6.70;2.67;;;17.80;99.00;;;;;;5071322;28;20428;-51
2021/10/04 11:13:39;;;;;;;6.10;2.53;;;17.90;99.10;;;;;;5070820;28;20509;-51
2021/10/04 11:16:37;;;;;;;5.10;2.10;;;17.90;99.20;;;;;;5070936;28;20478;-51
2021/10/04 11:19:05;;;;;;;5.27;2.40;;;17.90;99.10;;;;;;5070682;28;20429;-50
2021/10/04 11:21:33;;;;;;;4.33;2.37;;;17.90;99.20;;;;;;5070658;28;20485;-51
2021/10/04 11:24:04;;;;;;;5.40;2.30;;;17.90;99.30;;;;;;5070727;28;20451;-51
2021/10/04 11:26:34;;;;;;;6.07;2.30;;;17.90;99.30;;;;;;5052484;28;20493;-51
2021/10/04 11:29:03;;;;;;;6.00;2.20;;;17.90;99.80;;;;;;5070080;28;20439;-51
2021/10/04 11:31:31;;;;;;;3.43;2.30;;;17.90;99.60;;;;;;5070682;28;20550;-51
2021/10/04 11:34:00;;;;;;;4.73;2.53;;;18.00;99.60;;;;;;5070483;28;20432;-51
2021/10/04 11:36:29;;;;;;;4.63;2.10;;;18.10;99.60;;;;;;5070548;28;20504;-50
2021/10/04 11:38:59;;;;;;;5.93;2.40;;;17.90;99.30;;;;;;5070045;28;20488;-51
2021/10/04 11:41:29;;;;;;;4.63;2.63;;;18.10;99.20;;;;;;5069999;28;20843;-51
2021/10/04 11:43:57;;;;;;;3.90;2.20;;;19.40;99.70;;;;;;5069574;28;20433;-51
2021/10/04 11:46:29;;;;;;;10.83;3.27;;;18.20;99.00;;;;;;5070221;28;20459;-50
2021/10/04 11:49:06;;;;;;;7.90;2.30;;;18.20;98.90;;;;;;5070171;28;20482;-51
2021/10/04 11:51:36;;;;;;;7.67;2.00;;;18.20;98.90;;;;;;5070519;28;20478;-51
2021/10/04 11:54:03;;;;;;;8.90;2.47;;;18.20;98.90;;;;;;5070466;28;20519;-51
2021/10/04 11:56:38;;;;;;;6.10;2.60;;;18.20;98.80;;;;;;5070451;28;20526;-52
2021/10/04 11:59:05;;;;;;;6.17;2.00;;;18.20;98.80;;;;;;5069407;28;20946;-50
2021/10/04 12:01:33;;;;;;;8.23;2.60;;;18.20;98.90;;;;;;5069897;28;20584;-51
2021/10/04 12:04:05;;;;;;;6.63;2.57;;;18.20;98.90;;;;;;5069918;28;20429;-50
2021/10/04 12:06:34;;;;;;;9.97;2.50;;;18.20;98.80;;;;;;5070008;28;20460;-51
2021/10/04 12:09:01;;;;;;;6.90;2.30;;;18.30;98.90;;;;;;5069788;28;20431;-51
2021/10/04 12:11:28;;;;;;;5.67;2.57;;;18.20;98.80;;;;;;5069892;28;20509;-51
2021/10/04 12:13:56;;;;;;;5.23;2.47;;;18.20;98.90;;;;;;5069473;28;20443;-51
2021/10/04 12:16:29;;;;;;;6.17;2.90;;;18.20;99.00;;;;;;5069319;28;20578;-51
2021/10/04 12:18:58;;;;;;;6.00;2.77;;;18.10;99.10;;;;;;5069915;28;20472;-51
2021/10/04 12:21:27;;;;;;;5.70;3.10;;;18.10;99.30;;;;;;5069614;28;20489;-52
2021/10/04 12:24:09;;;;;;;9.53;3.27;;;18.10;99.50;;;;;;5069798;28;20447;-51
2021/10/04 12:26:55;;;;;;;5.83;2.67;;;18.10;99.50;;;;;;5069576;28;20889;-51
2021/10/04 12:29:35;;;;;;;6.07;2.77;;;18.10;99.50;;;;;;5069233;28;20618;-49
2021/10/04 12:32:22;;;;;;;7.33;6.63;;;18.00;99.40;;;;;;5069645;28;20463;-51
2021/10/04 12:35:18;;;;;;;5.70;2.80;;;18.00;99.70;;;;;;5069421;28;20964;-51
2021/10/04 12:37:47;;;;;;;9.50;3.37;;;18.00;99.50;;;;;;5069161;28;20521;-51
2021/10/04 12:40:28;;;;;;;4.80;2.73;;;18.00;99.50;;;;;;5069536;28;20846;-55
2021/10/04 12:43:03;;;;;;;4.17;3.13;;;18.00;99.60;;;;;;5069576;28;20926;-51
2021/10/04 12:45:32;;;;;;;11.90;3.50;;;17.80;99.40;;;;;;5069045;28;20814;-51
2021/10/04 12:48:02;;;;;;;6.93;3.17;;;18.00;99.60;;;;;;5067826;28;20440;-51
2021/10/04 12:50:32;;;;;;;9.00;3.50;;;17.90;99.70;;;;;;5069316;28;20430;-51
2021/10/04 12:53:16;;;;;;;7.60;2.60;;;17.90;99.80;;;;;;5069472;28;20461;-51
2021/10/04 12:56:01;;;;;;;7.45;3.35;;;17.90;99.70;;;;;;5068033;28;20497;-50